createdAt,value
2022-08-22T00:00:12.049Z,16.34
2022-08-22T00:02:46.231Z,18.32
2022-08-22T00:02:56.262Z,19.39
2022-08-22T00:03:04.983Z,18.86
2022-08-22T00:03:15.146Z,16.14
2022-08-22T00:05:39.331Z,16.52
2022-08-22T00:08:12.777Z,16.47
2022-08-22T00:10:49.853Z,16.52
2022-08-22T00:13:20.943Z,16.34
2022-08-22T00:15:53.806Z,16.35
2022-08-22T00:18:26.331Z,16.45
2022-08-22T00:21:00.380Z,16.27
2022-08-22T00:23:29.499Z,16.18
2022-08-22T00:26:02.186Z,15.86
2022-08-22T00:28:32.401Z,15.86
2022-08-22T00:31:02.761Z,15.94
2022-08-22T00:33:35.247Z,16.10
2022-08-22T00:36:16.280Z,16.03
2022-08-22T00:38:47.905Z,16.04
2022-08-22T00:41:25.290Z,15.69
2022-08-22T00:44:03.592Z,15.61
2022-08-22T00:46:47.746Z,15.78
2022-08-22T00:49:24.412Z,15.79
2022-08-22T00:52:19.661Z,15.78
2022-08-22T00:54:57.285Z,15.54
2022-08-22T00:57:46.088Z,15.27
2022-08-22T01:00:16.355Z,15.16
2022-08-22T01:02:53.076Z,15.34
2022-08-22T01:05:29.206Z,15.27
2022-08-22T01:08:05.726Z,15.41
2022-08-22T01:10:41.970Z,15.31
2022-08-22T01:13:15.954Z,15.26
2022-08-22T01:15:44.628Z,15.32
2022-08-22T01:18:25.917Z,15.47
2022-08-22T01:21:08.652Z,15.52
2022-08-22T01:23:56.315Z,15.38
2022-08-22T01:26:48.953Z,15.41
2022-08-22T01:29:32.326Z,15.49
2022-08-22T01:32:18.098Z,15.47
2022-08-22T01:34:56.400Z,15.70
2022-08-22T01:37:33.130Z,15.76
2022-08-22T01:40:17.127Z,15.75
2022-08-22T01:42:53.815Z,15.79
2022-08-22T01:45:51.092Z,15.81
2022-08-22T01:48:21.147Z,15.48
2022-08-22T01:50:53.423Z,15.30
2022-08-22T01:53:25.249Z,15.34
2022-08-22T01:55:59.708Z,15.28
2022-08-22T01:58:29.167Z,15.30
2022-08-22T02:01:04.118Z,15.24
2022-08-22T02:03:34.502Z,15.21
2022-08-22T02:06:06.229Z,15.23
2022-08-22T02:08:39.276Z,15.38
2022-08-22T02:11:08.216Z,15.24
2022-08-22T02:13:43.561Z,15.20
2022-08-22T02:16:13.261Z,15.06
2022-08-22T02:18:45.523Z,15.13
2022-08-22T02:21:17.635Z,15.27
2022-08-22T02:23:49.108Z,15.41
2022-08-22T02:26:18.479Z,15.30
2022-08-22T02:28:57.001Z,15.11
2022-08-22T02:31:34.226Z,15.28
2022-08-22T02:34:04.458Z,15.11
2022-08-22T02:36:35.619Z,15.20
2022-08-22T02:39:06.197Z,15.13
2022-08-22T02:41:38.460Z,15.26
2022-08-22T02:44:15.060Z,15.27
2022-08-22T02:46:46.963Z,15.10
2022-08-22T02:49:19.775Z,14.90
2022-08-22T02:51:52.555Z,15.02
2022-08-22T02:54:23.604Z,15.02
2022-08-22T02:56:54.496Z,15.02
2022-08-22T02:59:25.995Z,14.90
2022-08-22T03:01:54.439Z,14.88
2022-08-22T03:04:25.558Z,14.73
2022-08-22T03:07:07.936Z,14.78
2022-08-22T03:09:38.140Z,14.83
2022-08-22T03:12:09.490Z,14.73
2022-08-22T03:14:44.863Z,14.72
2022-08-22T03:17:16.693Z,14.75
2022-08-22T03:19:54.745Z,14.76
2022-08-22T03:22:28.929Z,14.73
2022-08-22T03:25:00.996Z,14.92
2022-08-22T03:27:32.517Z,14.90
2022-08-22T03:30:02.617Z,14.93
2022-08-22T03:32:46.050Z,14.88
2022-08-22T03:35:24.716Z,14.88
2022-08-22T03:37:57.790Z,14.71
2022-08-22T03:40:31.696Z,14.58
2022-08-22T03:43:23.514Z,14.69
2022-08-22T03:46:09.291Z,14.54
2022-08-22T03:49:04.303Z,14.65
2022-08-22T03:51:41.918Z,14.65
2022-08-22T03:54:23.464Z,14.58
2022-08-22T03:57:23.051Z,14.42
2022-08-22T04:00:11.990Z,14.27
2022-08-22T04:02:50.839Z,14.51
2022-08-22T04:05:27.130Z,14.40
2022-08-22T04:08:13.068Z,14.42
2022-08-22T04:10:52.811Z,14.31
2022-08-22T04:13:39.312Z,14.60
2022-08-22T04:16:22.126Z,14.44
2022-08-22T04:19:08.581Z,14.57
2022-08-22T04:21:43.199Z,14.62
2022-08-22T04:24:20.240Z,14.42
2022-08-22T04:26:52.304Z,14.45
2022-08-22T04:29:23.363Z,14.54
2022-08-22T04:31:54.966Z,14.69
2022-08-22T04:34:25.795Z,14.52
2022-08-22T04:36:56.729Z,14.64
2022-08-22T04:39:30.176Z,14.76
2022-08-22T04:42:16.310Z,14.79
2022-08-22T04:44:53.764Z,14.80
2022-08-22T04:47:28.647Z,14.86
2022-08-22T04:50:01.015Z,14.72
2022-08-22T04:52:41.137Z,14.83
2022-08-22T04:55:16.886Z,14.92
2022-08-22T04:57:51.663Z,14.78
2022-08-22T05:00:19.600Z,14.86
2022-08-22T05:02:49.700Z,14.92
2022-08-22T05:05:21.965Z,15.14
2022-08-22T05:07:51.027Z,15.20
2022-08-22T05:10:20.677Z,15.28
2022-08-22T05:12:54.515Z,15.21
2022-08-22T05:15:23.963Z,15.51
2022-08-22T05:17:54.782Z,15.42
2022-08-22T05:20:24.555Z,15.30
2022-08-22T05:22:54.896Z,15.48
2022-08-22T05:25:27.113Z,15.61
2022-08-22T05:28:07.708Z,15.76
2022-08-22T05:30:36.697Z,15.72
2022-08-22T05:33:08.153Z,15.59
2022-08-22T05:35:37.323Z,15.52
2022-08-22T05:38:05.786Z,15.61
2022-08-22T05:40:35.052Z,15.81
2022-08-22T05:43:10.400Z,15.76
2022-08-22T05:45:40.324Z,15.79
2022-08-22T05:48:10.455Z,15.89
2022-08-22T05:50:40.871Z,16.06
2022-08-22T05:53:11.977Z,16.27
2022-08-22T05:55:47.708Z,16.38
2022-08-22T05:58:27.086Z,16.55
2022-08-22T06:00:58.475Z,16.56
2022-08-22T06:03:27.893Z,16.66
2022-08-22T06:05:57.465Z,16.80
2022-08-22T06:08:28.722Z,16.75
2022-08-22T06:10:58.995Z,16.73
2022-08-22T06:13:33.204Z,16.71
2022-08-22T06:16:05.664Z,16.73
2022-08-22T06:18:34.042Z,16.71
2022-08-22T06:21:03.377Z,16.73
2022-08-22T06:23:35.156Z,16.86
2022-08-22T06:26:05.370Z,17.02
2022-08-22T06:28:36.732Z,17.10
2022-08-22T06:31:06.231Z,17.21
2022-08-22T06:33:38.341Z,17.18
2022-08-22T06:36:28.591Z,17.27
2022-08-22T06:39:01.427Z,17.43
2022-08-22T06:41:31.582Z,17.46
2022-08-22T06:44:01.561Z,17.62
2022-08-22T06:46:30.833Z,17.82
2022-08-22T06:49:00.215Z,17.96
2022-08-22T06:51:29.585Z,18.07
2022-08-22T06:54:00.857Z,18.12
2022-08-22T06:56:30.871Z,17.96
2022-08-22T06:59:01.614Z,18.24
2022-08-22T07:01:31.925Z,18.35
2022-08-22T07:04:05.115Z,18.41
2022-08-22T07:06:35.436Z,18.51
2022-08-22T07:09:05.526Z,18.42
2022-08-22T07:11:37.823Z,18.42
2022-08-22T07:14:08.742Z,18.52
2022-08-22T07:16:41.486Z,18.46
2022-08-22T07:19:10.366Z,18.53
2022-08-22T07:21:44.458Z,18.66
2022-08-22T07:24:15.798Z,18.70
2022-08-22T07:26:47.857Z,18.65
2022-08-22T07:29:21.783Z,18.60
2022-08-22T07:31:54.659Z,18.84
2022-08-22T07:34:29.110Z,18.86
2022-08-22T07:36:59.804Z,18.93
2022-08-22T07:39:32.540Z,18.98
2022-08-22T07:42:08.867Z,19.04
2022-08-22T07:44:45.335Z,19.08
2022-08-22T07:47:15.771Z,19.11
2022-08-22T07:49:50.640Z,19.25
2022-08-22T07:52:19.300Z,19.42
2022-08-22T07:54:49.023Z,19.51
2022-08-22T07:57:22.501Z,19.63
2022-08-22T07:59:53.111Z,19.70
2022-08-22T08:02:21.567Z,19.70
2022-08-22T08:04:50.298Z,19.93
2022-08-22T08:07:41.813Z,19.98
2022-08-22T08:10:17.033Z,19.80
2022-08-22T08:12:52.681Z,20.07
2022-08-22T08:15:32.816Z,20.12
2022-08-22T08:18:05.405Z,20.25
2022-08-22T08:20:36.673Z,20.26
2022-08-22T08:23:10.113Z,20.26
2022-08-22T08:25:53.456Z,20.35
2022-08-22T08:28:34.320Z,20.59
2022-08-22T08:31:08.717Z,20.67
2022-08-22T08:33:39.605Z,20.53
2022-08-22T08:36:16.576Z,20.66
2022-08-22T08:38:54.478Z,20.87
2022-08-22T08:42:01.527Z,21.02
2022-08-22T08:44:49.469Z,21.18
2022-08-22T08:47:32.916Z,21.24
2022-08-22T08:50:15.657Z,21.41
2022-08-22T08:53:09.766Z,21.60
2022-08-22T08:55:47.381Z,21.70
2022-08-22T08:58:43.360Z,21.77
2022-08-22T09:01:27.774Z,21.97
2022-08-22T09:04:22.688Z,22.04
2022-08-22T09:07:25.406Z,22.00
2022-08-22T09:10:13.902Z,22.16
2022-08-22T09:13:11.348Z,22.23
2022-08-22T09:16:05.354Z,22.47
2022-08-22T09:18:56.675Z,22.55
2022-08-22T09:21:58.733Z,22.56
2022-08-22T09:24:56.106Z,22.83
2022-08-22T09:27:34.459Z,22.97
2022-08-22T09:30:11.736Z,22.73
2022-08-22T09:32:47.132Z,22.84
2022-08-22T09:35:25.516Z,22.92
2022-08-22T09:38:28.099Z,23.11
2022-08-22T09:41:04.570Z,23.25
2022-08-22T09:43:44.190Z,23.22
2022-08-22T09:46:31.578Z,22.77
2022-08-22T09:49:11.430Z,22.71
2022-08-22T09:51:45.908Z,22.94
2022-08-22T09:54:31.123Z,23.16
2022-08-22T09:57:14.510Z,23.42
2022-08-22T10:00:03.064Z,23.63
2022-08-22T10:02:43.281Z,23.98
2022-08-22T10:05:39.459Z,24.43
2022-08-22T10:08:37.845Z,24.41
2022-08-22T10:11:22.930Z,24.60
2022-08-22T10:14:01.126Z,24.87
2022-08-22T10:16:48.692Z,24.96
2022-08-22T10:19:26.172Z,25.07
2022-08-22T10:22:41.862Z,25.22
2022-08-22T10:25:26.416Z,25.63
2022-08-22T10:28:23.890Z,25.81
2022-08-22T10:31:13.284Z,25.97
2022-08-22T10:33:47.761Z,25.99
2022-08-22T10:36:23.504Z,26.14
2022-08-22T10:38:56.627Z,26.28
2022-08-22T10:41:30.557Z,26.41
2022-08-22T10:44:04.898Z,26.53
2022-08-22T10:46:42.243Z,26.57
2022-08-22T10:49:20.497Z,26.92
2022-08-22T10:52:15.810Z,26.63
2022-08-22T10:54:51.510Z,26.67
2022-08-22T10:57:38.035Z,26.15
2022-08-22T11:00:14.570Z,26.57
2022-08-22T11:02:53.473Z,26.50
2022-08-22T11:05:50.224Z,26.06
2022-08-22T11:08:46.536Z,26.02
2022-08-22T11:11:40.365Z,26.19
2022-08-22T11:14:25.620Z,26.01
2022-08-22T11:17:00.637Z,26.22
2022-08-22T11:19:45.842Z,25.91
2022-08-22T11:22:30.186Z,25.74
2022-08-22T11:25:35.771Z,25.74
2022-08-22T11:28:36.830Z,26.14
2022-08-22T11:31:16.261Z,26.29
2022-08-22T11:33:54.378Z,26.35
2022-08-22T11:36:32.290Z,25.73
2022-08-22T11:39:13.811Z,25.63
2022-08-22T11:41:59.580Z,25.30
2022-08-22T11:44:34.867Z,24.95
2022-08-22T11:47:11.730Z,25.60
2022-08-22T11:49:51.663Z,26.08
2022-08-22T11:52:42.800Z,26.92
2022-08-22T11:55:33.042Z,27.27
2022-08-22T11:58:23.104Z,27.57
2022-08-22T12:01:01.933Z,28.26
2022-08-22T12:03:46.787Z,27.72
2022-08-22T12:06:41.907Z,27.82
2022-08-22T12:09:20.056Z,28.20
2022-08-22T12:12:01.390Z,27.50
2022-08-22T12:14:42.950Z,26.53
2022-08-22T12:17:55.592Z,26.14
2022-08-22T12:20:24.194Z,25.91
2022-08-22T12:23:10.694Z,25.92
2022-08-22T12:25:56.288Z,26.30
2022-08-22T12:28:32.789Z,27.50
2022-08-22T12:31:12.165Z,28.23
2022-08-22T12:34:03.435Z,28.30
2022-08-22T12:36:58.642Z,28.57
2022-08-22T12:39:44.592Z,28.90
2022-08-22T12:42:32.456Z,29.58
2022-08-22T12:45:21.318Z,30.96
2022-08-22T12:48:02.928Z,29.18
2022-08-22T12:50:43.191Z,29.36
2022-08-22T12:53:38.917Z,31.25
2022-08-22T12:56:20.794Z,31.43
2022-08-22T12:59:12.634Z,29.22
2022-08-22T13:01:44.154Z,29.36
2022-08-22T13:04:19.340Z,28.51
2022-08-22T13:07:08.578Z,28.35
2022-08-22T13:09:40.670Z,27.94
2022-08-22T13:12:28.348Z,28.49
2022-08-22T13:15:01.335Z,31.38
2022-08-22T13:17:31.350Z,31.81
2022-08-22T13:20:08.630Z,34.24
2022-08-22T13:22:41.349Z,32.12
2022-08-22T13:25:25.797Z,31.29
2022-08-22T13:27:59.331Z,30.51
2022-08-22T13:30:31.878Z,30.32
2022-08-22T13:33:08.777Z,30.85
2022-08-22T13:35:44.630Z,30.26
2022-08-22T13:38:25.877Z,30.34
2022-08-22T13:40:56.724Z,29.61
2022-08-22T13:43:29.774Z,29.49
2022-08-22T13:46:01.850Z,29.38
2022-08-22T13:48:46.807Z,29.57
2022-08-22T13:51:24.531Z,29.80
2022-08-22T13:54:00.892Z,29.55
2022-08-22T13:56:37.052Z,29.86
2022-08-22T13:59:29.302Z,29.63
2022-08-22T14:02:07.933Z,29.08
2022-08-22T14:04:48.699Z,29.58
2022-08-22T14:07:31.095Z,29.70
2022-08-22T14:10:03.361Z,29.96
2022-08-22T14:12:50.685Z,29.46
2022-08-22T14:15:24.666Z,29.19
2022-08-22T14:17:59.704Z,28.96
2022-08-22T14:20:33.810Z,28.95
2022-08-22T14:23:08.694Z,29.06
2022-08-22T14:25:39.096Z,29.49
2022-08-22T14:28:11.783Z,29.36
2022-08-22T14:30:59.485Z,29.37
2022-08-22T14:33:34.437Z,29.50
2022-08-22T14:36:15.189Z,30.09
2022-08-22T14:38:53.242Z,30.50
2022-08-22T14:41:55.489Z,30.79
2022-08-22T14:44:22.500Z,32.04
2022-08-22T14:46:55.217Z,34.61
2022-08-22T14:49:29.131Z,34.72
2022-08-22T14:52:04.565Z,33.02
2022-08-22T14:54:35.543Z,31.46
2022-08-22T14:57:10.657Z,29.82
2022-08-22T14:59:45.481Z,29.43
2022-08-22T15:02:18.645Z,30.22
2022-08-22T15:04:50.803Z,29.38
2022-08-22T15:07:24.419Z,29.29
2022-08-22T15:09:58.831Z,28.57
2022-08-22T15:12:30.725Z,28.26
2022-08-22T15:15:02.831Z,28.26
2022-08-22T15:17:44.323Z,27.98
2022-08-22T15:20:27.665Z,27.96
2022-08-22T15:22:58.747Z,28.05
2022-08-22T15:25:33.461Z,27.78
2022-08-22T15:28:06.569Z,28.04
2022-08-22T15:30:44.378Z,27.39
2022-08-22T15:33:19.065Z,27.06
2022-08-22T15:35:48.514Z,27.05
2022-08-22T15:38:30.647Z,26.90
2022-08-22T15:41:47.413Z,26.77
2022-08-22T15:44:33.116Z,26.63
2022-08-22T15:47:11.896Z,26.49
2022-08-22T15:49:55.575Z,26.40
2022-08-22T15:52:29.557Z,26.39
2022-08-22T15:55:24.589Z,26.30
2022-08-22T15:58:12.857Z,26.21
2022-08-22T16:00:45.573Z,26.09
2022-08-22T16:03:25.500Z,25.94
2022-08-22T16:05:58.314Z,25.92
2022-08-22T16:08:32.735Z,25.89
2022-08-22T16:11:28.498Z,25.84
2022-08-22T16:14:23.959Z,25.78
2022-08-22T16:17:03.653Z,25.70
2022-08-22T16:19:33.151Z,25.64
2022-08-22T16:22:19.103Z,25.60
2022-08-22T16:25:06.822Z,25.80
2022-08-22T16:27:52.232Z,25.88
2022-08-22T16:30:34.103Z,25.77
2022-08-22T16:33:02.880Z,25.59
2022-08-22T16:36:10.681Z,25.51
2022-08-22T16:38:44.648Z,25.35
2022-08-22T16:41:41.555Z,25.14
2022-08-22T16:44:41.669Z,24.91
2022-08-22T16:47:13.186Z,24.68
2022-08-22T16:50:00.114Z,24.19
2022-08-22T16:52:58.295Z,23.64
2022-08-22T16:56:04.792Z,23.26
2022-08-22T16:59:22.568Z,23.15
2022-08-22T17:02:19.809Z,23.29
2022-08-22T17:05:04.243Z,23.60
2022-08-22T17:07:45.539Z,23.66
2022-08-22T17:10:29.096Z,23.64
2022-08-22T17:13:10.244Z,23.52
2022-08-22T17:15:58.499Z,23.46
2022-08-22T17:18:47.021Z,23.53
2022-08-22T17:21:25.452Z,23.66
2022-08-22T17:24:33.762Z,23.61
2022-08-22T17:27:08.694Z,23.47
2022-08-22T17:29:54.548Z,23.50
2022-08-22T17:32:34.935Z,23.41
2022-08-22T17:35:18.495Z,23.41
2022-08-22T17:37:56.550Z,23.29
2022-08-22T17:40:38.136Z,23.26
2022-08-22T17:43:21.908Z,23.36
2022-08-22T17:46:05.617Z,23.33
2022-08-22T17:48:41.775Z,23.35
2022-08-22T17:51:27.907Z,23.26
2022-08-22T17:54:02.643Z,23.23
2022-08-22T17:56:41.120Z,23.16
2022-08-22T17:59:20.958Z,22.97
2022-08-22T18:01:55.082Z,22.94
2022-08-22T18:04:31.146Z,23.01
2022-08-22T18:07:33.135Z,22.80
2022-08-22T18:10:08.004Z,22.84
2022-08-22T18:12:44.007Z,22.77
2022-08-22T18:15:21.639Z,22.75
2022-08-22T18:17:56.742Z,22.68
2022-08-22T18:20:31.132Z,22.57
2022-08-22T18:23:04.612Z,22.56
2022-08-22T18:26:03.395Z,22.50
2022-08-22T18:28:40.815Z,22.49
2022-08-22T18:31:16.660Z,22.40
2022-08-22T18:33:53.379Z,22.35
2022-08-22T18:36:24.669Z,22.31
2022-08-22T18:38:59.822Z,22.28
2022-08-22T18:41:35.274Z,22.28
2022-08-22T18:44:11.899Z,22.19
2022-08-22T18:46:44.807Z,22.14
2022-08-22T18:49:40.298Z,22.06
2022-08-22T18:52:44.353Z,21.97
2022-08-22T18:55:45.170Z,21.97
2022-08-22T18:58:39.671Z,21.87
2022-08-22T19:01:42.186Z,21.86
2022-08-22T19:04:34.797Z,21.83
2022-08-22T19:07:20.747Z,21.87
2022-08-22T19:10:13.470Z,21.95
2022-08-22T19:13:06.474Z,21.91
2022-08-22T19:15:52.026Z,21.88
2022-08-22T19:18:36.318Z,21.77
2022-08-22T19:21:50.414Z,21.69
2022-08-22T19:25:08.958Z,21.61
2022-08-22T19:27:40.459Z,21.56
2022-08-22T19:30:45.541Z,21.29
2022-08-22T19:33:19.346Z,21.04
2022-08-22T19:36:30.332Z,20.74
2022-08-22T19:39:04.194Z,20.55
2022-08-22T19:41:53.545Z,20.43
2022-08-22T19:44:42.848Z,20.38
2022-08-22T19:47:27.184Z,20.25
2022-08-22T19:50:05.591Z,20.20
2022-08-22T19:52:53.020Z,20.11
2022-08-22T19:55:29.432Z,20.14
2022-08-22T19:58:07.903Z,20.05
2022-08-22T20:00:53.444Z,20.17
2022-08-22T20:03:32.958Z,20.14
2022-08-22T20:06:22.114Z,20.21
2022-08-22T20:09:12.628Z,20.21
2022-08-22T20:11:49.928Z,20.22
2022-08-22T20:14:30.013Z,20.22
2022-08-22T20:17:03.889Z,20.31
2022-08-22T20:20:16.362Z,20.24
2022-08-22T20:22:38.733Z,20.22
2022-08-22T20:25:15.739Z,20.26
2022-08-22T20:28:03.647Z,20.22
2022-08-22T20:30:39.110Z,20.11
2022-08-22T20:33:10.197Z,20.12
2022-08-22T20:35:43.996Z,20.11
2022-08-22T20:38:17.663Z,20.17
2022-08-22T20:40:56.596Z,20.12
2022-08-22T20:43:28.608Z,20.15
2022-08-22T20:46:13.294Z,20.18
2022-08-22T20:48:45.128Z,20.28
2022-08-22T20:51:21.915Z,20.28
2022-08-22T20:53:53.532Z,20.33
2022-08-22T20:56:48.694Z,20.38
2022-08-22T20:59:35.736Z,20.40
2022-08-22T21:02:17.049Z,20.42
2022-08-22T21:04:53.105Z,20.39
2022-08-22T21:07:26.794Z,20.38
2022-08-22T21:10:17.819Z,20.38
2022-08-22T21:13:04.465Z,20.52
2022-08-22T21:15:35.262Z,20.53
2022-08-22T21:18:03.630Z,20.53
2022-08-22T21:20:34.234Z,20.52
2022-08-22T21:23:06.812Z,20.46
2022-08-22T21:25:49.753Z,20.48
2022-08-22T21:28:28.643Z,20.31
2022-08-22T21:30:57.209Z,20.32
2022-08-22T21:33:25.682Z,20.35
2022-08-22T21:36:00.374Z,20.36
2022-08-22T21:38:29.957Z,20.31
2022-08-22T21:41:04.626Z,20.28
2022-08-22T21:43:36.855Z,20.24
2022-08-22T21:46:05.506Z,20.26
2022-08-22T21:48:45.001Z,20.17
2022-08-22T21:51:40.280Z,20.10
2022-08-22T21:54:41.035Z,20.00
2022-08-22T21:57:18.825Z,20.00
2022-08-22T21:59:52.310Z,19.93
2022-08-22T22:02:39.793Z,20.00
2022-08-22T22:05:11.330Z,20.04
2022-08-22T22:07:41.494Z,20.04
2022-08-22T22:10:12.502Z,20.03
2022-08-22T22:12:41.715Z,20.10
2022-08-22T22:15:12.590Z,20.05
2022-08-22T22:17:40.603Z,20.14
2022-08-22T22:20:09.918Z,20.25
2022-08-22T22:22:45.914Z,20.39
2022-08-22T22:25:40.890Z,20.46
2022-08-22T22:28:08.907Z,20.40
2022-08-22T22:30:37.305Z,20.43
2022-08-22T22:33:05.568Z,20.52
2022-08-22T22:35:34.101Z,20.59
2022-08-22T22:38:02.488Z,20.64
2022-08-22T22:40:32.181Z,20.85
2022-08-22T22:43:00.350Z,21.02
2022-08-22T22:45:28.480Z,21.29
2022-08-22T22:47:56.918Z,21.50
2022-08-22T22:50:25.277Z,21.64
2022-08-22T22:52:54.157Z,21.86
2022-08-22T22:55:24.089Z,22.01
2022-08-22T22:57:59.298Z,22.06
2022-08-22T23:00:30.649Z,22.08
2022-08-22T23:03:00.509Z,22.11
2022-08-22T23:05:28.806Z,22.16
2022-08-22T23:07:56.992Z,22.23
2022-08-22T23:10:25.293Z,22.16
2022-08-22T23:12:55.002Z,22.14
2022-08-22T23:15:22.775Z,22.11
2022-08-22T23:17:50.862Z,22.11
2022-08-22T23:20:18.945Z,22.18
2022-08-22T23:22:47.434Z,22.22
2022-08-22T23:25:16.221Z,22.16
2022-08-22T23:27:44.885Z,22.12
2022-08-22T23:30:21.714Z,22.08
2022-08-22T23:32:49.856Z,22.12
2022-08-22T23:35:18.132Z,22.11
2022-08-22T23:37:46.230Z,22.08
2022-08-22T23:40:14.305Z,22.12
2022-08-22T23:42:42.841Z,22.11
2022-08-22T23:45:11.301Z,22.16
2022-08-22T23:47:40.633Z,22.11
2022-08-22T23:50:09.005Z,22.09
2022-08-22T23:52:37.030Z,22.02
2022-08-22T23:55:05.459Z,22.04
2022-08-22T23:57:33.545Z,22.04
